createdAt,value
2019-01-10T00:00:36.716Z,0.45
2019-01-10T00:01:36.568Z,0.51
2019-01-10T00:02:36.579Z,0.51
2019-01-10T00:03:36.570Z,0.57
2019-01-10T00:04:36.536Z,0.51
2019-01-10T00:05:36.579Z,0.48
2019-01-10T00:06:36.527Z,0.45
2019-01-10T00:07:36.517Z,0.53
2019-01-10T00:08:36.552Z,0.49
2019-01-10T00:09:36.554Z,0.53
2019-01-10T00:10:36.461Z,0.41
2019-01-10T00:11:36.456Z,0.52
2019-01-10T00:12:39.628Z,0.49
2019-01-10T00:13:37.086Z,0.48
2019-01-10T00:14:36.439Z,0.51
2019-01-10T00:15:36.405Z,0.45
2019-01-10T00:16:36.405Z,0.49
2019-01-10T00:17:36.378Z,0.49
2019-01-10T00:18:36.383Z,0.51
2019-01-10T00:19:36.358Z,0.56
2019-01-10T00:20:36.466Z,0.52
2019-01-10T00:21:36.328Z,0.53
2019-01-10T00:22:38.136Z,0.56
2019-01-10T00:23:36.356Z,0.57
2019-01-10T00:24:36.292Z,0.44
2019-01-10T00:25:36.353Z,0.41
2019-01-10T00:26:36.281Z,0.52
2019-01-10T00:27:36.262Z,0.48
2019-01-10T00:28:36.313Z,0.51
2019-01-10T00:29:36.242Z,0.44
2019-01-10T00:30:36.231Z,0.51
2019-01-10T00:31:36.211Z,0.51
2019-01-10T00:32:36.210Z,0.45
2019-01-10T00:33:36.207Z,0.53
2019-01-10T00:34:36.242Z,0.44
2019-01-10T00:35:36.180Z,0.45
2019-01-10T00:36:36.157Z,0.48
2019-01-10T00:37:36.144Z,0.43
2019-01-10T00:38:36.175Z,0.49
2019-01-10T00:39:36.120Z,0.45
2019-01-10T00:40:36.132Z,0.48
2019-01-10T00:41:36.132Z,0.56
2019-01-10T00:42:36.235Z,0.57
2019-01-10T00:43:36.266Z,0.45
2019-01-10T00:44:36.087Z,0.57
2019-01-10T00:45:36.068Z,0.51
2019-01-10T00:46:36.087Z,0.49
2019-01-10T00:47:36.048Z,0.48
2019-01-10T00:48:36.068Z,0.52
2019-01-10T00:49:36.057Z,0.48
2019-01-10T00:50:36.014Z,0.48
2019-01-10T00:51:36.060Z,0.49
2019-01-10T00:52:36.022Z,0.52
2019-01-10T00:53:35.989Z,0.49
2019-01-10T00:54:36.584Z,0.57
2019-01-10T00:55:35.996Z,0.53
2019-01-10T00:56:35.932Z,0.53
2019-01-10T00:57:35.965Z,0.51
2019-01-10T00:58:36.619Z,0.53
2019-01-10T00:59:36.148Z,0.49
2019-01-10T01:00:35.881Z,0.49
2019-01-10T01:01:35.878Z,0.53
2019-01-10T01:02:35.869Z,0.49
2019-01-10T01:03:35.848Z,0.49
2019-01-10T01:04:35.865Z,0.49
2019-01-10T01:05:35.852Z,0.48
2019-01-10T01:06:35.819Z,0.53
2019-01-10T01:07:35.800Z,0.52
2019-01-10T01:08:35.781Z,0.57
2019-01-10T01:09:35.793Z,0.53
2019-01-10T01:10:35.764Z,0.49
2019-01-10T01:11:35.756Z,0.51
2019-01-10T01:12:35.786Z,0.49
2019-01-10T01:13:35.795Z,0.48
2019-01-10T01:14:35.787Z,0.48
2019-01-10T01:15:35.712Z,0.56
2019-01-10T01:16:35.696Z,0.49
2019-01-10T01:17:35.716Z,0.51
2019-01-10T01:18:35.696Z,0.56
2019-01-10T01:19:35.733Z,0.52
2019-01-10T01:20:35.673Z,0.49
2019-01-10T01:21:35.637Z,0.45
2019-01-10T01:22:35.638Z,0.45
2019-01-10T01:23:35.625Z,0.51
2019-01-10T01:24:35.682Z,0.45
2019-01-10T01:25:35.615Z,0.45
2019-01-10T01:26:35.586Z,0.43
2019-01-10T01:27:35.647Z,0.51
2019-01-10T01:28:35.620Z,0.45
2019-01-10T01:29:35.615Z,0.49
2019-01-10T01:30:35.543Z,0.48
2019-01-10T01:31:35.534Z,0.48
2019-01-10T01:32:35.530Z,0.48
2019-01-10T01:33:35.542Z,0.52
2019-01-10T01:34:35.621Z,0.44
2019-01-10T01:35:35.481Z,0.48
2019-01-10T01:36:35.495Z,0.45
2019-01-10T01:37:35.485Z,0.48
2019-01-10T01:38:35.484Z,0.48
2019-01-10T01:39:35.485Z,0.48
2019-01-10T01:40:35.494Z,0.45
2019-01-10T01:41:35.422Z,0.56
2019-01-10T01:42:35.458Z,0.45
2019-01-10T01:43:35.413Z,0.56
2019-01-10T01:44:35.500Z,0.48
2019-01-10T01:45:35.443Z,0.51
2019-01-10T01:46:36.069Z,0.52
2019-01-10T01:47:35.360Z,0.45
2019-01-10T01:48:36.076Z,0.64
2019-01-10T01:49:35.501Z,0.45
2019-01-10T01:50:36.099Z,0.51
2019-01-10T01:51:36.072Z,0.53
2019-01-10T01:52:35.287Z,0.60
2019-01-10T01:53:35.280Z,0.52
2019-01-10T01:54:36.083Z,0.52
2019-01-10T01:55:35.266Z,0.48
2019-01-10T01:56:35.284Z,0.45
2019-01-10T01:57:35.231Z,0.49
2019-01-10T01:58:35.224Z,0.48
2019-01-10T01:59:35.273Z,0.48
2019-01-10T02:00:35.193Z,0.49
2019-01-10T02:01:35.227Z,0.56
2019-01-10T02:02:35.181Z,0.52
2019-01-10T02:03:35.155Z,0.57
2019-01-10T02:04:35.178Z,0.49
2019-01-10T02:05:35.146Z,0.56
2019-01-10T02:06:35.135Z,0.45
2019-01-10T02:07:35.111Z,0.45
2019-01-10T02:08:35.132Z,0.44
2019-01-10T02:09:35.588Z,0.51
2019-01-10T02:10:35.078Z,0.49
2019-01-10T02:11:35.086Z,0.43
2019-01-10T02:12:35.077Z,0.49
2019-01-10T02:13:35.056Z,0.45
2019-01-10T02:14:35.067Z,0.59
2019-01-10T02:15:35.068Z,0.53
2019-01-10T02:16:35.008Z,0.49
2019-01-10T02:17:35.021Z,0.49
2019-01-10T02:18:35.000Z,0.53
2019-01-10T02:19:35.613Z,0.52
2019-01-10T02:20:35.007Z,0.60
2019-01-10T02:21:34.953Z,0.48
2019-01-10T02:22:34.973Z,0.52
2019-01-10T02:23:34.945Z,0.51
2019-01-10T02:24:34.957Z,0.57
2019-01-10T02:25:34.934Z,0.51
2019-01-10T02:26:34.901Z,0.57
2019-01-10T02:27:34.885Z,0.59
2019-01-10T02:28:34.871Z,0.59
2019-01-10T02:29:35.158Z,0.64
2019-01-10T02:30:41.796Z,0.60
2019-01-10T02:31:35.836Z,0.62
2019-01-10T02:32:34.872Z,0.63
2019-01-10T02:33:34.838Z,0.60
2019-01-10T02:34:35.149Z,0.62
2019-01-10T02:35:34.846Z,0.60
2019-01-10T02:36:34.799Z,0.64
2019-01-10T02:37:34.827Z,0.72
2019-01-10T02:38:34.767Z,0.68
2019-01-10T02:39:37.598Z,0.62
2019-01-10T02:40:34.822Z,0.57
2019-01-10T02:41:37.634Z,0.56
2019-01-10T02:42:36.564Z,0.63
2019-01-10T02:43:34.758Z,0.74
2019-01-10T02:44:34.744Z,0.64
2019-01-10T02:45:34.729Z,0.62
2019-01-10T02:46:34.678Z,0.60
2019-01-10T02:47:34.668Z,0.68
2019-01-10T02:48:35.657Z,0.70
2019-01-10T02:49:34.645Z,0.62
2019-01-10T02:50:34.631Z,0.63
2019-01-10T02:51:34.644Z,0.62
2019-01-10T02:52:34.603Z,0.63
2019-01-10T02:53:34.591Z,0.63
2019-01-10T02:54:34.635Z,0.57
2019-01-10T02:55:34.579Z,0.63
2019-01-10T02:56:34.561Z,0.60
2019-01-10T02:57:34.561Z,0.63
2019-01-10T02:58:34.523Z,0.62
2019-01-10T02:59:34.529Z,0.64
2019-01-10T03:00:34.530Z,0.62
2019-01-10T03:01:34.526Z,0.64
2019-01-10T03:02:34.519Z,0.59
2019-01-10T03:03:34.468Z,0.60
2019-01-10T03:04:34.466Z,0.60
2019-01-10T03:05:34.493Z,0.60
2019-01-10T03:06:34.440Z,0.71
2019-01-10T03:07:34.420Z,0.63
2019-01-10T03:08:34.419Z,0.63
2019-01-10T03:09:34.412Z,0.67
2019-01-10T03:10:34.436Z,0.56
2019-01-10T03:11:34.375Z,0.57
2019-01-10T03:12:34.377Z,0.68
2019-01-10T03:13:36.796Z,0.64
2019-01-10T03:14:34.344Z,0.70
2019-01-10T03:15:34.385Z,0.70
2019-01-10T03:16:35.135Z,0.57
2019-01-10T03:17:34.306Z,0.60
2019-01-10T03:18:34.352Z,0.63
2019-01-10T03:19:35.070Z,0.64
2019-01-10T03:20:36.083Z,0.60
2019-01-10T03:21:34.380Z,0.62
2019-01-10T03:22:34.247Z,0.57
2019-01-10T03:23:34.246Z,0.62
2019-01-10T03:24:34.278Z,0.62
2019-01-10T03:25:34.293Z,0.62
2019-01-10T03:26:34.209Z,0.64
2019-01-10T03:27:34.217Z,0.63
2019-01-10T03:28:34.188Z,0.63
2019-01-10T03:29:34.183Z,0.59
2019-01-10T03:30:34.203Z,0.68
2019-01-10T03:31:34.152Z,0.60
2019-01-10T03:32:34.144Z,0.68
2019-01-10T03:33:34.130Z,0.56
2019-01-10T03:34:34.112Z,0.67
2019-01-10T03:35:34.163Z,0.62
2019-01-10T03:36:34.095Z,0.71
2019-01-10T03:37:34.084Z,0.67
2019-01-10T03:38:34.080Z,0.64
2019-01-10T03:39:34.581Z,0.60
2019-01-10T03:40:34.096Z,0.70
2019-01-10T03:41:34.059Z,0.59
2019-01-10T03:42:34.024Z,0.62
2019-01-10T03:43:34.009Z,0.60
2019-01-10T03:44:34.703Z,0.57
2019-01-10T03:45:34.031Z,0.70
2019-01-10T03:46:34.043Z,0.62
2019-01-10T03:47:33.969Z,0.62
2019-01-10T03:48:34.013Z,0.64
2019-01-10T03:49:33.982Z,0.67
2019-01-10T03:50:33.967Z,0.62
2019-01-10T03:51:33.931Z,0.62
2019-01-10T03:52:33.904Z,0.57
2019-01-10T03:53:33.943Z,0.63
2019-01-10T03:54:33.893Z,0.57
2019-01-10T03:55:33.949Z,0.51
2019-01-10T03:56:33.893Z,0.48
2019-01-10T03:57:33.929Z,0.49
2019-01-10T03:58:33.881Z,0.52
2019-01-10T03:59:33.845Z,0.53
2019-01-10T04:00:33.896Z,0.53
2019-01-10T04:01:33.825Z,0.62
2019-01-10T04:02:33.788Z,0.57
2019-01-10T04:03:33.795Z,0.64
2019-01-10T04:04:33.788Z,0.63
2019-01-10T04:05:33.788Z,0.64
2019-01-10T04:06:33.769Z,0.62
2019-01-10T04:07:33.729Z,0.62
2019-01-10T04:08:33.741Z,0.62
2019-01-10T04:09:33.753Z,0.64
2019-01-10T04:10:33.747Z,0.52
2019-01-10T04:11:33.748Z,0.63
2019-01-10T04:12:33.686Z,0.60
2019-01-10T04:13:33.696Z,0.64
2019-01-10T04:14:33.685Z,0.57
2019-01-10T04:15:33.678Z,0.62
2019-01-10T04:16:33.638Z,0.60
2019-01-10T04:17:33.616Z,0.57
2019-01-10T04:18:33.663Z,0.49
2019-01-10T04:19:33.598Z,0.52
2019-01-10T04:20:33.616Z,0.59
2019-01-10T04:21:33.580Z,0.62
2019-01-10T04:22:33.579Z,0.67
2019-01-10T04:23:33.563Z,0.60
2019-01-10T04:24:33.537Z,0.57
2019-01-10T04:25:33.551Z,0.59
2019-01-10T04:26:33.519Z,0.57
2019-01-10T04:27:33.501Z,0.57
2019-01-10T04:28:33.497Z,0.59
2019-01-10T04:29:33.502Z,0.52
2019-01-10T04:30:33.506Z,0.49
2019-01-10T04:31:34.101Z,0.62
2019-01-10T04:32:33.447Z,0.67
2019-01-10T04:33:33.491Z,0.49
2019-01-10T04:34:33.438Z,0.59
2019-01-10T04:35:33.502Z,0.52
2019-01-10T04:36:33.412Z,0.48
2019-01-10T04:37:33.442Z,0.51
2019-01-10T04:38:33.405Z,0.49
2019-01-10T04:39:36.103Z,0.60
2019-01-10T04:40:33.528Z,0.44
2019-01-10T04:41:33.386Z,0.48
2019-01-10T04:42:33.342Z,0.56
2019-01-10T04:43:33.331Z,0.52
2019-01-10T04:44:33.324Z,0.53
2019-01-10T04:45:33.340Z,0.53
2019-01-10T04:46:33.286Z,0.52
2019-01-10T04:47:33.300Z,0.43
2019-01-10T04:48:33.283Z,0.43
2019-01-10T04:49:33.256Z,0.44
2019-01-10T04:50:33.288Z,0.56
2019-01-10T04:51:33.223Z,0.45
2019-01-10T04:52:33.228Z,0.44
2019-01-10T04:53:33.214Z,0.49
2019-01-10T04:54:38.272Z,0.45
2019-01-10T04:55:34.214Z,0.56
2019-01-10T04:56:33.175Z,0.45
2019-01-10T04:57:33.171Z,0.51
2019-01-10T04:58:33.158Z,0.49
2019-01-10T04:59:33.155Z,0.52
2019-01-10T05:00:33.162Z,0.45
2019-01-10T05:01:33.107Z,0.49
2019-01-10T05:02:33.106Z,0.45
2019-01-10T05:03:33.087Z,0.51
2019-01-10T05:04:33.093Z,0.51
2019-01-10T05:05:33.070Z,0.51
2019-01-10T05:06:33.077Z,0.51
2019-01-10T05:07:33.047Z,0.51
2019-01-10T05:08:33.060Z,0.51
2019-01-10T05:09:33.017Z,0.52
2019-01-10T05:10:33.028Z,0.53
2019-01-10T05:11:33.046Z,0.48
2019-01-10T05:12:33.002Z,0.51
2019-01-10T05:13:32.978Z,0.51
2019-01-10T05:14:32.987Z,0.49
2019-01-10T05:15:32.953Z,0.52
2019-01-10T05:16:32.980Z,0.49
2019-01-10T05:17:32.939Z,0.52
2019-01-10T05:18:32.916Z,0.45
2019-01-10T05:19:32.904Z,0.49
2019-01-10T05:20:32.895Z,0.48
2019-01-10T05:21:32.898Z,0.49
2019-01-10T05:22:32.916Z,0.52
2019-01-10T05:23:32.889Z,0.51
2019-01-10T05:24:32.876Z,0.49
2019-01-10T05:25:32.830Z,0.51
2019-01-10T05:26:32.848Z,0.51
2019-01-10T05:27:32.809Z,0.51
2019-01-10T05:28:32.797Z,0.49
2019-01-10T05:29:32.844Z,0.48
2019-01-10T05:30:32.803Z,0.49
2019-01-10T05:31:32.815Z,0.48
2019-01-10T05:32:32.782Z,0.49
2019-01-10T05:33:32.763Z,0.49
2019-01-10T05:34:32.746Z,0.48
2019-01-10T05:35:33.625Z,0.44
2019-01-10T05:36:33.113Z,0.43
2019-01-10T05:37:33.602Z,0.44
2019-01-10T05:38:32.704Z,0.37
2019-01-10T05:39:32.746Z,0.40
2019-01-10T05:40:32.672Z,0.35
2019-01-10T05:41:32.677Z,0.40
2019-01-10T05:42:32.642Z,0.41
2019-01-10T05:43:32.668Z,0.43
2019-01-10T05:44:32.619Z,0.43
2019-01-10T05:45:32.610Z,0.44
2019-01-10T05:46:32.706Z,0.40
2019-01-10T05:47:32.585Z,0.44
2019-01-10T05:48:32.591Z,0.44
2019-01-10T05:49:32.590Z,0.51
2019-01-10T05:50:32.605Z,0.48
2019-01-10T05:51:32.589Z,0.44
2019-01-10T05:52:32.527Z,0.40
2019-01-10T05:53:32.581Z,0.40
2019-01-10T05:54:32.502Z,0.44
2019-01-10T05:55:32.504Z,0.43
2019-01-10T05:56:32.493Z,0.44
2019-01-10T05:57:32.473Z,0.40
2019-01-10T05:58:32.479Z,0.40
2019-01-10T05:59:32.475Z,0.44
2019-01-10T06:00:33.074Z,0.44
2019-01-10T06:01:32.445Z,0.41
2019-01-10T06:02:32.415Z,0.43
2019-01-10T06:03:32.409Z,0.34
2019-01-10T06:04:32.418Z,0.37
2019-01-10T06:05:32.373Z,0.48
2019-01-10T06:06:32.385Z,0.44
2019-01-10T06:07:32.363Z,0.49
2019-01-10T06:08:32.338Z,0.41
2019-01-10T06:09:32.333Z,0.41
2019-01-10T06:10:32.344Z,0.41
2019-01-10T06:11:32.399Z,0.49
2019-01-10T06:12:32.293Z,0.45
2019-01-10T06:13:33.080Z,0.49
2019-01-10T06:14:35.804Z,0.38
2019-01-10T06:15:33.131Z,0.38
2019-01-10T06:16:33.116Z,0.37
2019-01-10T06:17:34.130Z,0.40
2019-01-10T06:18:32.230Z,0.40
2019-01-10T06:19:32.272Z,0.35
2019-01-10T06:20:32.234Z,0.35
2019-01-10T06:21:32.252Z,0.33
2019-01-10T06:22:32.180Z,0.33
2019-01-10T06:23:32.176Z,0.31
2019-01-10T06:24:35.073Z,0.38
2019-01-10T06:25:32.234Z,0.31
2019-01-10T06:26:32.214Z,0.34
2019-01-10T06:27:32.125Z,0.30
2019-01-10T06:28:32.114Z,0.33
2019-01-10T06:29:32.326Z,0.25
2019-01-10T06:30:32.108Z,0.34
2019-01-10T06:31:32.124Z,0.31
2019-01-10T06:32:32.070Z,0.35
2019-01-10T06:33:32.059Z,0.38
2019-01-10T06:34:32.051Z,0.33
2019-01-10T06:35:32.037Z,0.26
2019-01-10T06:36:33.132Z,0.34
2019-01-10T06:37:32.022Z,0.30
2019-01-10T06:38:32.012Z,0.33
2019-01-10T06:39:31.987Z,0.30
2019-01-10T06:40:32.580Z,0.31
2019-01-10T06:41:32.000Z,0.38
2019-01-10T06:42:31.960Z,0.34
2019-01-10T06:43:31.932Z,0.33
2019-01-10T06:44:31.921Z,0.34
2019-01-10T06:45:31.919Z,0.31
2019-01-10T06:46:31.922Z,0.28
2019-01-10T06:47:31.897Z,0.33
2019-01-10T06:48:31.874Z,0.28
2019-01-10T06:49:31.866Z,0.30
2019-01-10T06:50:31.886Z,0.35
2019-01-10T06:51:31.861Z,0.33
2019-01-10T06:52:31.833Z,0.28
2019-01-10T06:53:31.832Z,0.25
2019-01-10T06:54:31.825Z,0.30
2019-01-10T06:55:31.826Z,0.17
2019-01-10T06:56:31.802Z,0.30
2019-01-10T06:57:31.779Z,0.38
2019-01-10T06:58:31.779Z,0.30
2019-01-10T06:59:31.764Z,0.26
2019-01-10T07:00:31.816Z,0.23
2019-01-10T07:01:31.749Z,0.17
2019-01-10T07:02:31.736Z,0.20
2019-01-10T07:03:31.742Z,0.22
2019-01-10T07:04:31.713Z,0.19
2019-01-10T07:05:31.715Z,0.20
2019-01-10T07:06:31.677Z,0.20
2019-01-10T07:07:31.697Z,0.16
2019-01-10T07:08:31.650Z,0.25
2019-01-10T07:09:31.643Z,0.26
2019-01-10T07:10:31.655Z,0.28
2019-01-10T07:11:31.632Z,0.23
2019-01-10T07:12:31.618Z,0.22
2019-01-10T07:13:31.606Z,0.20
2019-01-10T07:14:33.670Z,0.22
2019-01-10T07:15:31.577Z,0.19
2019-01-10T07:16:31.622Z,0.17
2019-01-10T07:17:31.587Z,0.26
2019-01-10T07:18:31.568Z,0.23
2019-01-10T07:19:31.551Z,0.19
2019-01-10T07:20:31.525Z,0.20
2019-01-10T07:21:31.505Z,0.20
2019-01-10T07:22:31.534Z,0.26
2019-01-10T07:23:31.496Z,0.28
2019-01-10T07:24:31.473Z,0.38
2019-01-10T07:25:31.480Z,0.44
2019-01-10T07:26:31.475Z,0.52
2019-01-10T07:27:31.469Z,0.62
2019-01-10T07:28:31.449Z,0.67
2019-01-10T07:29:31.440Z,0.71
2019-01-10T07:30:36.323Z,0.77
2019-01-10T07:31:32.441Z,0.80
2019-01-10T07:32:31.411Z,0.74
2019-01-10T07:33:32.332Z,0.77
2019-01-10T07:34:31.374Z,0.67
2019-01-10T07:35:31.340Z,0.67
2019-01-10T07:36:31.326Z,0.56
2019-01-10T07:37:31.336Z,0.63
2019-01-10T07:38:31.305Z,0.45
2019-01-10T07:39:31.290Z,0.49
2019-01-10T07:40:31.302Z,0.49
2019-01-10T07:41:31.311Z,0.45
2019-01-10T07:42:31.274Z,0.51
2019-01-10T07:43:31.245Z,0.49
2019-01-10T07:44:31.247Z,0.52
2019-01-10T07:45:31.227Z,0.44
2019-01-10T07:46:31.213Z,0.51
2019-01-10T07:47:31.243Z,0.45
2019-01-10T07:48:31.188Z,0.49
2019-01-10T07:49:31.176Z,0.45
2019-01-10T07:50:31.166Z,0.51
2019-01-10T07:51:31.154Z,0.45
2019-01-10T07:52:31.161Z,0.41
2019-01-10T07:53:31.147Z,0.35
2019-01-10T07:54:31.128Z,0.45
2019-01-10T07:55:31.109Z,0.40
2019-01-10T07:56:31.103Z,0.44
2019-01-10T07:57:31.099Z,0.40
2019-01-10T07:58:31.080Z,0.44
2019-01-10T07:59:31.098Z,0.35
2019-01-10T08:00:31.064Z,0.33
2019-01-10T08:01:31.045Z,0.35
2019-01-10T08:02:31.049Z,0.35
2019-01-10T08:03:31.032Z,0.35
2019-01-10T08:04:31.009Z,0.31
2019-01-10T08:05:31.008Z,0.34
2019-01-10T08:06:30.998Z,0.28
2019-01-10T08:07:31.043Z,0.38
2019-01-10T08:08:30.970Z,0.31
2019-01-10T08:09:30.976Z,0.30
2019-01-10T08:10:30.943Z,0.37
2019-01-10T08:11:30.955Z,0.38
2019-01-10T08:12:30.947Z,0.34
2019-01-10T08:13:30.905Z,0.28
2019-01-10T08:14:30.905Z,0.28
2019-01-10T08:15:30.886Z,0.30
2019-01-10T08:16:30.921Z,0.28
2019-01-10T08:17:30.890Z,0.22
2019-01-10T08:18:30.844Z,0.20
2019-01-10T08:19:30.834Z,0.25
2019-01-10T08:20:30.844Z,0.26
2019-01-10T08:21:30.822Z,0.26
2019-01-10T08:22:30.823Z,0.25
2019-01-10T08:23:30.794Z,0.33
2019-01-10T08:24:30.786Z,0.34
2019-01-10T08:25:30.763Z,0.34
2019-01-10T08:26:30.755Z,0.30
2019-01-10T08:27:30.822Z,0.37
2019-01-10T08:28:30.738Z,0.28
2019-01-10T08:29:30.718Z,0.33
2019-01-10T08:30:30.802Z,0.40
2019-01-10T08:31:30.697Z,0.33
2019-01-10T08:32:30.704Z,0.31
2019-01-10T08:33:30.673Z,0.33
2019-01-10T08:34:30.672Z,0.33
2019-01-10T08:35:30.648Z,0.40
2019-01-10T08:36:32.557Z,0.30
2019-01-10T08:37:30.647Z,0.34
2019-01-10T08:38:30.623Z,0.35
2019-01-10T08:39:30.608Z,0.33
2019-01-10T08:40:30.593Z,0.34
2019-01-10T08:41:30.620Z,0.38
2019-01-10T08:42:30.595Z,0.38
2019-01-10T08:43:30.570Z,0.25
2019-01-10T08:44:30.577Z,0.34
2019-01-10T08:45:30.584Z,0.22
2019-01-10T08:46:30.533Z,0.28
2019-01-10T08:47:30.611Z,0.30
2019-01-10T08:48:30.515Z,0.23
2019-01-10T08:49:30.494Z,0.17
2019-01-10T08:50:30.493Z,0.22
2019-01-10T08:51:30.506Z,0.22
2019-01-10T08:52:30.488Z,0.26
2019-01-10T08:53:30.446Z,0.33
2019-01-10T08:54:30.434Z,0.28
2019-01-10T08:55:30.441Z,0.23
2019-01-10T08:56:30.427Z,0.31
2019-01-10T08:57:30.432Z,0.28
2019-01-10T08:58:30.391Z,0.26
2019-01-10T08:59:30.371Z,0.25
2019-01-10T09:00:30.372Z,0.25
2019-01-10T09:01:30.355Z,0.23
2019-01-10T09:02:30.376Z,0.31
2019-01-10T09:03:30.334Z,0.33
2019-01-10T09:04:30.333Z,0.30
2019-01-10T09:05:30.319Z,0.33
2019-01-10T09:06:30.296Z,0.17
2019-01-10T09:07:30.303Z,0.23
2019-01-10T09:08:30.278Z,0.30
2019-01-10T09:09:30.275Z,0.22
2019-01-10T09:10:30.248Z,0.25
2019-01-10T09:11:30.241Z,0.26
2019-01-10T09:12:30.263Z,0.16
2019-01-10T09:13:30.227Z,0.31
2019-01-10T09:14:30.231Z,0.22
2019-01-10T09:15:34.561Z,0.10
2019-01-10T09:16:30.199Z,0.20
2019-01-10T09:17:30.198Z,0.13
2019-01-10T09:18:30.175Z,0.16
2019-01-10T09:19:30.162Z,0.20
2019-01-10T09:20:30.133Z,0.12
2019-01-10T09:21:30.121Z,0.07
2019-01-10T09:22:30.108Z,0.10
2019-01-10T09:23:30.195Z,0.07
2019-01-10T09:24:30.101Z,0.10
2019-01-10T09:25:30.092Z,0.08
2019-01-10T09:26:37.745Z,0.13
2019-01-10T09:27:31.062Z,0.01
2019-01-10T09:28:30.076Z,0.08
2019-01-10T09:29:30.036Z,0.16
2019-01-10T09:30:30.017Z,0.05
2019-01-10T09:31:30.004Z,0.16
2019-01-10T09:32:29.995Z,0.15
2019-01-10T09:33:30.021Z,0.17
2019-01-10T09:34:29.971Z,0.13
2019-01-10T09:35:29.964Z,0.10
2019-01-10T09:36:29.951Z,0.12
2019-01-10T09:37:29.939Z,0.16
2019-01-10T09:38:29.953Z,0.02
2019-01-10T09:39:29.944Z,0.08
2019-01-10T09:40:29.907Z,0.16
2019-01-10T09:41:29.894Z,-0.02
2019-01-10T09:42:29.885Z,0.01
2019-01-10T09:43:29.887Z,-0.05
2019-01-10T09:44:29.864Z,0.02
2019-01-10T09:45:29.858Z,0.01
2019-01-10T09:46:29.848Z,0.02
2019-01-10T09:47:29.832Z,-0.03
2019-01-10T09:48:29.827Z,-0.02
2019-01-10T09:49:29.810Z,-0.02
2019-01-10T09:50:29.795Z,-0.01
2019-01-10T09:51:29.789Z,-0.02
2019-01-10T09:52:29.764Z,0.05
2019-01-10T09:53:29.785Z,0.01
2019-01-10T09:54:29.783Z,0.08
2019-01-10T09:55:29.752Z,0.04
2019-01-10T09:56:29.737Z,-0.03
2019-01-10T09:57:29.739Z,0.12
2019-01-10T09:58:29.719Z,0.10
2019-01-10T09:59:29.689Z,0.16
2019-01-10T10:00:29.682Z,0.10
2019-01-10T10:01:29.685Z,0.04
2019-01-10T10:02:29.667Z,0.10
2019-01-10T10:03:29.663Z,0.12
2019-01-10T10:04:29.643Z,0.10
2019-01-10T10:05:29.623Z,0.12
2019-01-10T10:06:29.629Z,0.12
2019-01-10T10:07:29.614Z,0.08
2019-01-10T10:08:29.610Z,0.05
2019-01-10T10:09:29.577Z,0.13
2019-01-10T10:10:29.583Z,0.12
2019-01-10T10:11:34.236Z,0.07
2019-01-10T10:12:29.547Z,-0.01
2019-01-10T10:13:29.552Z,-0.01
2019-01-10T10:14:29.518Z,-0.03
2019-01-10T10:15:29.522Z,-0.06
2019-01-10T10:16:29.503Z,-0.16
2019-01-10T10:17:29.495Z,-0.13
2019-01-10T10:18:29.497Z,-0.06
2019-01-10T10:19:29.464Z,-0.05
2019-01-10T10:20:29.461Z,-0.08
2019-01-10T10:21:29.473Z,-0.05
2019-01-10T10:22:29.422Z,-0.05
2019-01-10T10:23:29.432Z,-0.12
2019-01-10T10:24:29.439Z,-0.08
2019-01-10T10:25:29.415Z,-0.05
2019-01-10T10:26:29.382Z,-0.03
2019-01-10T10:27:29.374Z,-0.13
2019-01-10T10:28:29.392Z,-0.08
2019-01-10T10:29:29.337Z,-0.08
2019-01-10T10:30:29.332Z,-0.13
2019-01-10T10:31:29.350Z,-0.21
2019-01-10T10:32:29.320Z,-0.08
2019-01-10T10:33:29.320Z,-0.06
2019-01-10T10:34:29.286Z,-0.12
2019-01-10T10:35:29.300Z,-0.08
2019-01-10T10:36:30.034Z,-0.06
2019-01-10T10:37:29.268Z,-0.09
2019-01-10T10:38:29.264Z,-0.09
2019-01-10T10:39:29.226Z,-0.09
2019-01-10T10:40:29.224Z,-0.05
2019-01-10T10:41:29.230Z,-0.06
2019-01-10T10:42:29.203Z,-0.05
2019-01-10T10:43:29.197Z,-0.16
2019-01-10T10:44:29.179Z,-0.08
2019-01-10T10:45:29.159Z,-0.23
2019-01-10T10:46:29.155Z,-0.21
2019-01-10T10:47:29.147Z,-0.23
2019-01-10T10:48:29.149Z,-0.26
2019-01-10T10:49:29.115Z,-0.23
2019-01-10T10:50:29.108Z,-0.21
2019-01-10T10:51:29.108Z,-0.13
2019-01-10T10:52:29.083Z,-0.20
2019-01-10T10:53:29.088Z,-0.17
2019-01-10T10:54:29.068Z,-0.16
2019-01-10T10:55:29.071Z,-0.21
2019-01-10T10:56:29.068Z,-0.17
2019-01-10T10:57:29.041Z,-0.17
2019-01-10T10:58:29.042Z,-0.17
2019-01-10T10:59:29.018Z,-0.19
2019-01-10T11:00:28.984Z,-0.16
2019-01-10T11:01:29.010Z,-0.16
2019-01-10T11:02:28.984Z,-0.23
2019-01-10T11:03:28.972Z,-0.17
2019-01-10T11:04:28.944Z,-0.19
2019-01-10T11:05:28.963Z,-0.14
2019-01-10T11:06:28.931Z,-0.19
2019-01-10T11:07:28.915Z,-0.14
2019-01-10T11:08:28.929Z,-0.13
2019-01-10T11:09:28.891Z,-0.14
2019-01-10T11:10:28.884Z,-0.14
2019-01-10T11:11:28.861Z,-0.14
2019-01-10T11:12:28.859Z,-0.08
2019-01-10T11:13:28.915Z,-0.13
2019-01-10T11:14:28.831Z,-0.13
2019-01-10T11:15:28.812Z,-0.09
2019-01-10T11:16:28.866Z,-0.09
2019-01-10T11:17:28.790Z,-0.09
2019-01-10T11:18:28.796Z,-0.03
2019-01-10T11:19:28.817Z,-0.06
2019-01-10T11:20:28.753Z,-0.09
2019-01-10T11:21:28.753Z,-0.08
2019-01-10T11:22:28.732Z,-0.12
2019-01-10T11:23:28.752Z,-0.06
2019-01-10T11:24:28.763Z,-0.09
2019-01-10T11:25:28.702Z,-0.06
2019-01-10T11:26:28.689Z,-0.14
2019-01-10T11:27:28.680Z,-0.14
2019-01-10T11:28:28.664Z,-0.16
2019-01-10T11:29:28.672Z,-0.09
2019-01-10T11:30:28.674Z,-0.09
2019-01-10T11:31:28.640Z,-0.12
2019-01-10T11:32:28.618Z,-0.03
2019-01-10T11:33:28.621Z,-0.13
2019-01-10T11:34:28.643Z,-0.14
2019-01-10T11:35:28.600Z,-0.09
2019-01-10T11:36:28.621Z,-0.08
2019-01-10T11:37:28.577Z,-0.13
2019-01-10T11:38:28.548Z,-0.05
2019-01-10T11:39:28.561Z,0.04
2019-01-10T11:40:28.528Z,0.01
2019-01-10T11:41:28.521Z,-0.03
2019-01-10T11:42:28.520Z,-0.06
2019-01-10T11:43:28.513Z,-0.09
2019-01-10T11:44:28.508Z,-0.13
2019-01-10T11:45:28.477Z,-0.14
2019-01-10T11:46:28.485Z,-0.13
2019-01-10T11:47:28.450Z,-0.16
2019-01-10T11:48:28.445Z,-0.03
2019-01-10T11:49:28.448Z,-0.09
2019-01-10T11:50:28.448Z,-0.09
2019-01-10T11:51:28.417Z,0.02
2019-01-10T11:52:28.417Z,-0.05
2019-01-10T11:53:35.429Z,-0.13
2019-01-10T11:54:29.402Z,-0.08
2019-01-10T11:55:28.358Z,-0.09
2019-01-10T11:56:28.360Z,-0.14
2019-01-10T11:57:28.374Z,-0.09
2019-01-10T11:58:28.319Z,-0.17
2019-01-10T11:59:28.329Z,-0.06
2019-01-10T12:00:28.301Z,-0.09
2019-01-10T12:01:28.286Z,-0.17
2019-01-10T12:02:36.123Z,-0.12
2019-01-10T12:03:29.290Z,-0.09
2019-01-10T12:04:28.303Z,-0.09
2019-01-10T12:05:28.247Z,-0.14
2019-01-10T12:06:28.252Z,-0.16
2019-01-10T12:07:28.227Z,-0.16
2019-01-10T12:08:28.217Z,-0.17
2019-01-10T12:09:28.219Z,-0.17
2019-01-10T12:10:28.191Z,-0.17
2019-01-10T12:11:28.177Z,-0.12
2019-01-10T12:12:28.271Z,-0.06
2019-01-10T12:13:28.162Z,-0.12
2019-01-10T12:14:28.154Z,-0.12
2019-01-10T12:15:28.135Z,-0.09
2019-01-10T12:16:28.715Z,-0.09
2019-01-10T12:17:28.111Z,-0.14
2019-01-10T12:18:28.090Z,-0.14
2019-01-10T12:19:28.101Z,-0.19
2019-01-10T12:20:28.071Z,-0.26
2019-01-10T12:21:28.057Z,-0.23
2019-01-10T12:22:28.058Z,-0.21
2019-01-10T12:23:28.039Z,-0.16
2019-01-10T12:24:28.042Z,-0.20
2019-01-10T12:25:28.018Z,-0.26
2019-01-10T12:26:28.008Z,-0.19
2019-01-10T12:27:27.990Z,-0.19
2019-01-10T12:28:28.036Z,-0.17
2019-01-10T12:29:35.943Z,-0.17
2019-01-10T12:30:28.980Z,-0.06
2019-01-10T12:31:27.945Z,-0.08
2019-01-10T12:32:27.935Z,-0.14
2019-01-10T12:33:27.973Z,-0.19
2019-01-10T12:34:27.963Z,-0.14
2019-01-10T12:35:27.905Z,-0.05
2019-01-10T12:36:27.902Z,-0.12
2019-01-10T12:37:27.887Z,-0.09
2019-01-10T12:38:27.890Z,-0.14
2019-01-10T12:39:27.890Z,-0.12
2019-01-10T12:40:27.852Z,-0.13
2019-01-10T12:41:27.829Z,-0.16
2019-01-10T12:42:27.823Z,-0.16
2019-01-10T12:43:27.828Z,-0.12
2019-01-10T12:44:27.843Z,-0.08
2019-01-10T12:45:27.816Z,-0.12
2019-01-10T12:46:27.779Z,-0.06
2019-01-10T12:47:27.769Z,-0.14
2019-01-10T12:48:27.748Z,-0.13
2019-01-10T12:49:27.762Z,-0.12
2019-01-10T12:50:27.735Z,-0.16
2019-01-10T12:51:27.719Z,-0.13
2019-01-10T12:52:35.062Z,-0.06
2019-01-10T12:53:28.695Z,-0.12
2019-01-10T12:54:27.714Z,-0.19
2019-01-10T12:55:27.676Z,-0.14
2019-01-10T12:56:27.686Z,-0.17
2019-01-10T12:57:27.640Z,-0.17
2019-01-10T12:58:27.637Z,-0.13
2019-01-10T12:59:28.511Z,-0.17
2019-01-10T13:00:27.620Z,-0.17
2019-01-10T13:01:27.606Z,-0.21
2019-01-10T13:02:27.646Z,-0.12
2019-01-10T13:03:27.579Z,-0.14
2019-01-10T13:04:27.588Z,-0.09
2019-01-10T13:05:27.562Z,-0.08
2019-01-10T13:06:27.670Z,-0.08
2019-01-10T13:07:27.609Z,-0.06
2019-01-10T13:08:27.523Z,-0.09
2019-01-10T13:09:27.537Z,-0.14
2019-01-10T13:10:27.506Z,-0.05
2019-01-10T13:11:27.521Z,-0.05
2019-01-10T13:12:27.486Z,-0.12